Uwharie, North Carolina
Current Conditions -  °F | °C
As of 2:55 PM on Friday 24 Oct 2014 (Local Time) from KVUJ Reporting Station
Clear Clear  
Wind Chill: 69°   Ceiling: Unl
Heat Index: 69°   Visibility: 10mi
Dew Point: 38°   Wind: 3mph
Humidity: 32%   Direction: 350°N
Pressure: 30.02"   Gusts: NA
Location:  35.4086°N, 79.9566°W
Report Text: KVUJ 241855Z AUTO 35003KT 10SM CLR 21/03 A3002 RMK AO2 T02070032
Loading
Personal Weather Stations






























Interactive Weather Map
Tropical Storm Tracking
New forecast layout! Learn more

10-Day Weather Forecast

Advertisements
Track Severe Weather on mobile